Time;durP1;ratioP1;P1;durP2;ratioP2;P2;SDS_P1;SDS_P2;PMS_P1;PMS_P2;Temp;Humidity;BMP_temperature;BMP_pressure;BME280_temperature;BME280_humidity;BME280_pressure;Samples;Min_cycle;Max_cycle;Signal;HPM_P1;HPM_P2
2022/08/19 00:02:09;;;;;;;10.00;9.70;;;20.30;99.90;;;;;;5020791;28;20239;-77
2022/08/19 00:04:39;;;;;;;9.60;9.30;;;20.30;99.90;;;;;;5030645;28;20228;-78
2022/08/19 00:07:08;;;;;;;9.65;9.35;;;20.40;99.90;;;;;;5034564;28;20223;-77
2022/08/19 00:09:36;;;;;;;9.73;9.43;;;20.40;99.90;;;;;;5033548;28;20251;-78
2022/08/19 00:12:10;;;;;;;9.40;9.10;;;20.40;99.90;;;;;;5033837;28;20228;-77
2022/08/19 00:14:39;;;;;;;9.65;9.35;;;20.40;99.90;;;;;;5033854;28;20236;-77
2022/08/19 00:17:08;;;;;;;9.25;8.95;;;20.50;99.90;;;;;;5032822;28;20232;-77
2022/08/19 00:19:40;;;;;;;9.73;9.43;;;20.40;99.90;;;;;;5032528;28;20279;-77
2022/08/19 00:22:08;;;;;;;9.40;9.10;;;20.40;99.90;;;;;;5033161;28;20299;-77
2022/08/19 00:24:37;;;;;;;9.30;9.00;;;20.50;99.90;;;;;;5033257;28;20242;-78
2022/08/19 00:27:06;;;;;;;9.40;9.10;;;20.50;99.90;;;;;;5033727;28;20232;-77
2022/08/19 00:29:34;;;;;;;9.27;8.98;;;20.40;99.90;;;;;;5031931;28;20244;-78
2022/08/19 00:32:01;;;;;;;9.57;9.27;;;20.40;99.90;;;;;;5030118;28;20232;-77
2022/08/19 00:34:29;;;;;;;9.55;9.25;;;20.40;99.90;;;;;;5030488;28;20235;-78
2022/08/19 00:36:59;;;;;;;9.70;9.40;;;20.40;99.90;;;;;;5029954;28;20331;-77
2022/08/19 00:39:26;;;;;;;9.70;9.40;;;20.50;99.90;;;;;;5029548;28;20216;-78
2022/08/19 00:41:54;;;;;;;9.30;9.00;;;20.50;99.90;;;;;;5029718;28;20252;-78
2022/08/19 00:44:26;;;;;;;9.35;9.05;;;20.40;99.90;;;;;;5029731;28;20237;-79
2022/08/19 00:46:57;;;;;;;9.50;9.20;;;20.40;99.90;;;;;;5027515;28;20266;-77
2022/08/19 00:49:32;;;;;;;9.40;9.10;;;20.40;99.90;;;;;;5023219;28;20231;-77
2022/08/19 00:52:05;;;;;;;9.30;9.00;;;20.40;99.90;;;;;;5022511;28;20275;-77
2022/08/19 00:54:33;;;;;;;9.60;9.30;;;20.40;99.90;;;;;;5022963;28;20232;-78
2022/08/19 00:57:02;;;;;;;9.50;9.20;;;20.40;99.90;;;;;;5026163;28;20228;-78
2022/08/19 00:59:31;;;;;;;9.27;8.98;;;20.40;99.90;;;;;;5026976;28;20331;-78
2022/08/19 01:01:59;;;;;;;9.40;9.10;;;20.30;99.90;;;;;;5026294;28;20259;-78
2022/08/19 01:04:26;;;;;;;9.23;8.93;;;20.30;99.90;;;;;;5023141;28;20239;-79
2022/08/19 01:06:54;;;;;;;9.35;9.05;;;20.30;99.90;;;;;;5021405;28;20252;-79
2022/08/19 01:09:21;;;;;;;9.60;9.30;;;20.30;99.90;;;;;;5019936;28;20335;-77
2022/08/19 01:11:49;;;;;;;9.43;9.13;;;20.20;99.90;;;;;;5020426;28;20243;-78
2022/08/19 01:14:17;;;;;;;9.50;9.20;;;20.20;99.90;;;;;;5020256;28;20245;-78
2022/08/19 01:16:48;;;;;;;9.50;9.20;;;20.20;99.90;;;;;;5019311;28;20236;-78
2022/08/19 01:19:24;;;;;;;9.38;9.07;;;20.30;99.90;;;;;;5020110;28;20248;-78
2022/08/19 01:22:01;;;;;;;8.93;8.73;;;20.30;99.90;;;;;;5019784;28;20227;-78
2022/08/19 01:24:32;;;;;;;9.20;8.90;;;20.30;99.90;;;;;;5019016;28;20236;-78
2022/08/19 01:27:01;;;;;;;9.65;9.35;;;20.30;99.90;;;;;;5019105;28;20224;-78
2022/08/19 01:29:30;;;;;;;9.60;9.30;;;20.20;99.90;;;;;;5019175;28;20243;-78
2022/08/19 01:32:00;;;;;;;9.35;9.05;;;20.10;99.90;;;;;;5019176;28;20251;-78
2022/08/19 01:34:29;;;;;;;9.45;9.15;;;20.10;99.90;;;;;;5018902;28;20236;-78
2022/08/19 01:37:01;;;;;;;9.10;8.80;;;20.10;99.90;;;;;;5019488;28;20243;-78
2022/08/19 01:39:31;;;;;;;9.10;8.80;;;20.10;99.90;;;;;;5018974;28;20717;-78
2022/08/19 01:41:58;;;;;;;9.30;9.00;;;20.10;99.90;;;;;;5018868;28;20231;-79
2022/08/19 01:44:27;;;;;;;9.70;9.40;;;20.10;99.90;;;;;;5018684;28;20275;-78
2022/08/19 01:46:56;;;;;;;9.93;9.63;;;20.20;99.90;;;;;;5019300;28;20236;-77
2022/08/19 01:49:26;;;;;;;9.65;9.35;;;20.20;99.90;;;;;;5017791;28;20276;-78
2022/08/19 01:51:55;;;;;;;9.98;9.68;;;20.20;99.90;;;;;;5019175;28;20240;-78
2022/08/19 01:54:24;;;;;;;9.90;9.60;;;20.20;99.90;;;;;;5018629;28;20274;-78
2022/08/19 01:56:57;;;;;;;9.70;9.40;;;20.30;99.90;;;;;;5018333;28;20232;-78
2022/08/19 01:59:25;;;;;;;9.40;9.10;;;20.30;99.90;;;;;;5019347;28;20296;-79
2022/08/19 02:01:52;;;;;;;9.52;9.23;;;20.30;99.90;;;;;;5019048;28;20232;-78
2022/08/19 02:04:20;;;;;;;9.50;9.20;;;20.30;99.90;;;;;;5018720;28;20232;-78
2022/08/19 02:06:49;;;;;;;9.55;9.25;;;20.10;99.90;;;;;;5018538;28;20236;-78
2022/08/19 02:09:16;;;;;;;9.35;9.05;;;20.00;99.90;;;;;;5018707;28;20240;-78
2022/08/19 02:11:44;;;;;;;9.40;9.10;;;20.10;99.90;;;;;;5018159;28;20240;-78
2022/08/19 02:14:18;;;;;;;9.48;9.18;;;20.10;99.90;;;;;;5018438;28;20275;-77
2022/08/19 02:16:46;;;;;;;9.30;9.00;;;20.10;99.90;;;;;;5018438;28;20231;-77
2022/08/19 02:19:13;;;;;;;9.00;8.80;;;20.10;99.90;;;;;;5019779;28;20345;-77
2022/08/19 02:21:41;;;;;;;9.02;8.77;;;20.10;99.90;;;;;;5022342;28;20232;-78
2022/08/19 02:24:08;;;;;;;9.23;8.93;;;20.10;99.90;;;;;;5021692;28;20267;-78
2022/08/19 02:26:39;;;;;;;9.40;9.10;;;20.10;99.90;;;;;;5021672;28;20326;-78
2022/08/19 02:29:09;;;;;;;9.50;9.20;;;20.20;99.90;;;;;;5022735;28;20248;-78
2022/08/19 02:31:40;;;;;;;9.50;9.20;;;20.20;99.90;;;;;;5022600;28;20228;-78
2022/08/19 02:34:09;;;;;;;9.32;9.02;;;20.20;99.90;;;;;;5023706;28;20227;-79
2022/08/19 02:36:37;;;;;;;9.10;8.80;;;20.20;99.90;;;;;;5024049;28;20311;-78
2022/08/19 02:39:04;;;;;;;9.30;9.00;;;20.30;99.90;;;;;;5022729;28;20331;-77
2022/08/19 02:41:34;;;;;;;9.30;9.00;;;20.30;99.90;;;;;;5022954;28;20264;-78
2022/08/19 02:44:06;;;;;;;9.15;8.85;;;20.30;99.90;;;;;;5021924;28;20232;-78
2022/08/19 02:46:36;;;;;;;9.07;8.80;;;20.30;99.90;;;;;;5021323;28;20236;-78
2022/08/19 02:49:16;;;;;;;9.20;8.90;;;20.30;99.90;;;;;;5020765;28;20248;-78
2022/08/19 02:51:46;;;;;;;9.25;8.95;;;20.20;99.90;;;;;;5021871;28;20334;-79
2022/08/19 02:54:15;;;;;;;8.77;8.57;;;20.20;99.90;;;;;;5021595;28;20287;-78
2022/08/19 02:56:44;;;;;;;9.10;8.80;;;20.20;99.90;;;;;;5021443;28;20334;-78
2022/08/19 02:59:12;;;;;;;8.85;8.65;;;20.20;99.90;;;;;;5021109;28;20334;-78
2022/08/19 03:01:42;;;;;;;8.80;8.60;;;20.20;99.90;;;;;;5021418;28;20234;-78
2022/08/19 03:04:19;;;;;;;9.20;8.90;;;20.10;99.90;;;;;;5021180;28;20246;-78
2022/08/19 03:06:49;;;;;;;8.90;8.70;;;20.10;99.90;;;;;;5021335;28;20319;-78
2022/08/19 03:09:19;;;;;;;9.00;8.80;;;20.10;99.90;;;;;;5021226;28;20243;-78
2022/08/19 03:11:47;;;;;;;8.52;8.32;;;20.20;99.90;;;;;;5021811;28;20315;-78
2022/08/19 03:14:17;;;;;;;8.80;8.60;;;20.20;99.90;;;;;;5021617;28;20331;-78
2022/08/19 03:16:48;;;;;;;9.00;8.80;;;20.20;99.90;;;;;;5021085;28;20715;-78
2022/08/19 03:19:24;;;;;;;9.00;8.80;;;20.10;99.90;;;;;;5021097;28;20235;-78
2022/08/19 03:21:55;;;;;;;9.20;8.90;;;20.00;99.90;;;;;;5020796;28;20227;-78
2022/08/19 03:24:24;;;;;;;9.00;8.80;;;20.00;99.90;;;;;;5020658;28;20239;-77
2022/08/19 03:26:57;;;;;;;8.75;8.55;;;20.10;99.90;;;;;;5020319;28;20308;-78
2022/08/19 03:29:26;;;;;;;9.27;8.98;;;20.00;99.90;;;;;;5020285;28;20241;-78
2022/08/19 03:31:54;;;;;;;9.43;9.13;;;20.00;99.90;;;;;;5019487;28;20251;-78
2022/08/19 03:34:28;;;;;;;9.50;9.20;;;20.00;99.90;;;;;;5020346;28;20232;-77
2022/08/19 03:37:01;;;;;;;9.40;9.10;;;20.00;99.90;;;;;;5020934;28;20328;-78
2022/08/19 03:39:29;;;;;;;9.40;9.10;;;20.00;99.90;;;;;;5021272;28;20224;-78
2022/08/19 03:42:02;;;;;;;9.32;9.02;;;20.00;99.90;;;;;;5025399;28;20228;-78
2022/08/19 03:44:32;;;;;;;9.30;9.00;;;20.00;99.90;;;;;;5025300;28;20241;-78
2022/08/19 03:47:01;;;;;;;9.15;8.85;;;20.10;99.90;;;;;;5025142;28;20331;-78
2022/08/19 03:49:33;;;;;;;9.23;8.93;;;20.10;99.90;;;;;;5021101;28;20271;-77
2022/08/19 03:52:01;;;;;;;8.88;8.68;;;20.10;99.90;;;;;;5021208;28;20302;-77
2022/08/19 03:54:29;;;;;;;9.10;8.80;;;20.10;99.90;;;;;;5020019;28;20662;-78
2022/08/19 03:56:57;;;;;;;9.10;8.80;;;20.10;99.90;;;;;;5020225;28;20232;-78
2022/08/19 03:59:27;;;;;;;8.93;8.73;;;20.00;99.90;;;;;;5020010;28;20270;-78
2022/08/19 04:01:56;;;;;;;9.23;8.93;;;20.10;99.90;;;;;;5020891;28;20234;-78
2022/08/19 04:04:24;;;;;;;9.20;8.90;;;20.00;99.90;;;;;;5019410;28;20247;-79
2022/08/19 04:06:53;;;;;;;9.50;9.20;;;19.90;99.90;;;;;;5019870;28;20240;-78
2022/08/19 04:09:22;;;;;;;9.30;9.00;;;20.00;99.90;;;;;;5020235;28;20282;-78
2022/08/19 04:11:53;;;;;;;9.05;8.75;;;20.10;99.90;;;;;;5020178;28;20256;-78
2022/08/19 04:14:24;;;;;;;9.90;9.60;;;20.10;99.90;;;;;;5019994;28;20236;-78
2022/08/19 04:16:53;;;;;;;9.85;9.55;;;20.00;99.90;;;;;;5020006;28;20239;-78
2022/08/19 04:19:21;;;;;;;10.10;9.80;;;19.90;99.90;;;;;;5019765;28;20296;-77
2022/08/19 04:21:53;;;;;;;9.90;9.60;;;20.00;99.90;;;;;;5019346;28;20263;-78
2022/08/19 04:24:21;;;;;;;9.85;9.55;;;20.10;99.90;;;;;;5020880;28;20244;-79
2022/08/19 04:26:49;;;;;;;9.90;9.60;;;20.10;99.90;;;;;;5021033;28;20232;-78
2022/08/19 04:29:24;;;;;;;9.82;9.52;;;20.10;99.90;;;;;;5020482;28;20236;-77
2022/08/19 04:31:53;;;;;;;9.90;9.60;;;20.00;99.90;;;;;;5020132;28;20315;-78
2022/08/19 04:34:23;;;;;;;10.00;9.70;;;20.00;99.90;;;;;;5020311;28;20236;-79
2022/08/19 04:36:54;;;;;;;9.90;9.60;;;20.00;99.90;;;;;;5019298;28;20234;-77
2022/08/19 04:42:38;;;;;;;9.70;9.40;;;20.10;99.90;;;;;;5019284;28;20235;-78
2022/08/19 04:45:00;;;;;;;9.90;9.60;;;20.20;99.90;;;;;;5018923;28;20232;-78
2022/08/19 04:50:01;;;;;;;10.10;9.80;;;20.20;99.90;;;;;;5006839;28;20233;-85
2022/08/19 04:52:31;;;;;;;9.63;9.32;;;20.30;99.90;;;;;;5007888;28;20255;-85
2022/08/19 04:54:59;;;;;;;9.80;9.50;;;20.30;99.90;;;;;;5007548;28;20271;-83
2022/08/19 04:57:28;;;;;;;9.65;9.35;;;20.30;99.90;;;;;;5007787;28;20264;-83
2022/08/19 04:59:57;;;;;;;9.57;9.27;;;20.30;99.90;;;;;;4987591;28;20237;-83
2022/08/19 05:02:27;;;;;;;9.90;9.60;;;20.30;99.90;;;;;;4988238;28;20241;-83
2022/08/19 05:05:00;;;;;;;9.80;9.50;;;20.20;99.90;;;;;;4986871;28;20269;-84
2022/08/19 05:07:29;;;;;;;9.90;9.60;;;20.30;99.90;;;;;;4987265;28;20233;-84
2022/08/19 05:09:56;;;;;;;9.80;9.50;;;20.40;99.90;;;;;;4987520;28;20226;-84
2022/08/19 05:12:24;;;;;;;10.18;9.88;;;20.40;99.90;;;;;;4987432;28;20249;-83
2022/08/19 05:14:54;;;;;;;9.90;9.60;;;20.40;99.90;;;;;;4988211;28;20230;-85
2022/08/19 05:17:23;;;;;;;9.90;9.60;;;20.50;99.90;;;;;;4987550;28;20261;-84
2022/08/19 05:22:52;;;;;;;9.93;9.63;;;20.50;99.90;;;;;;4988060;28;20218;-84
2022/08/19 05:28:05;;;;;;;9.63;9.32;;;20.50;99.90;;;;;;4987181;28;20252;-83
2022/08/19 05:30:34;;;;;;;9.68;9.38;;;20.60;99.90;;;;;;4987884;28;20233;-84
2022/08/19 05:33:04;;;;;;;9.68;9.38;;;20.60;99.90;;;;;;4987748;28;20220;-84
2022/08/19 05:35:33;;;;;;;9.60;9.30;;;20.60;99.90;;;;;;4988242;28;20278;-84
2022/08/19 05:38:07;;;;;;;9.38;9.07;;;20.50;99.90;;;;;;4987258;28;20264;-83
2022/08/19 05:40:41;;;;;;;9.60;9.30;;;20.60;99.90;;;;;;4988185;28;20237;-84
2022/08/19 05:43:11;;;;;;;9.43;9.13;;;20.60;99.90;;;;;;4987542;28;20217;-84
2022/08/19 05:45:41;;;;;;;9.55;9.25;;;20.60;99.90;;;;;;4986773;28;20241;-84
2022/08/19 05:48:10;;;;;;;9.93;9.63;;;20.70;99.90;;;;;;4987467;28;20248;-84
2022/08/19 05:50:39;;;;;;;9.73;9.43;;;20.80;99.90;;;;;;4988957;28;20233;-84
2022/08/19 05:53:17;;;;;;;9.60;9.30;;;20.80;99.90;;;;;;4990154;28;20298;-84
2022/08/19 05:55:47;;;;;;;9.80;9.50;;;20.90;99.90;;;;;;4988105;28;20233;-84
2022/08/19 05:58:17;;;;;;;9.52;9.23;;;20.90;99.90;;;;;;4988302;28;20277;-84
2022/08/19 06:00:45;;;;;;;9.63;9.32;;;21.00;99.90;;;;;;4987479;28;20288;-84
2022/08/19 06:03:15;;;;;;;9.35;9.05;;;21.00;99.90;;;;;;4987377;28;20245;-84
2022/08/19 06:05:44;;;;;;;9.40;9.10;;;21.00;99.90;;;;;;4987397;28;20237;-84
2022/08/19 06:11:23;;;;;;;9.30;9.00;;;21.20;99.90;;;;;;4986908;28;20288;-84
2022/08/19 06:16:38;;;;;;;9.40;9.10;;;21.20;99.90;;;;;;4986248;28;20261;-85
2022/08/19 06:19:16;;;;;;;9.85;9.55;;;21.10;99.90;;;;;;4986522;28;20677;-84
2022/08/19 06:21:47;;;;;;;9.85;9.55;;;21.10;99.90;;;;;;4986495;28;20289;-85
2022/08/19 06:24:23;;;;;;;10.02;9.73;;;21.10;99.90;;;;;;4986133;28;20244;-85
2022/08/19 06:26:53;;;;;;;10.15;9.85;;;21.10;99.90;;;;;;4986495;28;20241;-85
2022/08/19 06:29:32;;;;;;;9.90;9.60;;;21.30;99.90;;;;;;4986080;28;20240;-84
2022/08/19 06:32:03;;;;;;;9.90;9.60;;;21.40;99.90;;;;;;4986605;28;20289;-85
2022/08/19 06:34:40;;;;;;;10.10;9.80;;;21.40;99.90;;;;;;4986335;28;20229;-84
2022/08/19 06:37:09;;;;;;;9.82;9.52;;;21.50;99.90;;;;;;4987414;28;20245;-84
2022/08/19 06:39:46;;;;;;;10.20;9.90;;;21.50;99.90;;;;;;4986584;28;20241;-84
2022/08/19 06:42:16;;;;;;;9.93;9.63;;;21.50;99.90;;;;;;4986160;28;20281;-84
2022/08/19 06:44:48;;;;;;;9.88;9.57;;;21.70;99.90;;;;;;4985611;28;20249;-84
2022/08/19 06:47:25;;;;;;;10.20;9.90;;;21.90;99.90;;;;;;4985624;28;20236;-85
2022/08/19 06:50:02;;;;;;;10.00;9.70;;;22.10;99.90;;;;;;4985464;28;20243;-84
2022/08/19 06:52:30;;;;;;;9.85;9.55;;;22.20;99.90;;;;;;4985504;28;20284;-84
2022/08/19 06:55:11;;;;;;;9.60;9.30;;;22.30;99.90;;;;;;4985610;28;20285;-84
2022/08/19 06:57:39;;;;;;;9.88;9.57;;;22.30;99.90;;;;;;4990523;28;20260;-85
2022/08/19 07:00:10;;;;;;;9.90;9.60;;;22.30;99.90;;;;;;4990010;28;21084;-85
2022/08/19 07:02:38;;;;;;;9.82;9.52;;;22.40;99.90;;;;;;4989270;28;20241;-84
2022/08/19 07:05:09;;;;;;;9.80;9.50;;;22.50;99.90;;;;;;4987508;28;20280;-85
2022/08/19 07:07:37;;;;;;;10.25;9.95;;;22.50;99.90;;;;;;4992005;28;20304;-84
2022/08/19 07:10:15;;;;;;;10.10;9.80;;;22.60;99.90;;;;;;4991766;28;20242;-84
2022/08/19 07:12:44;;;;;;;10.00;9.70;;;22.70;99.90;;;;;;4991268;28;20241;-83
2022/08/19 07:15:13;;;;;;;9.65;9.35;;;22.70;99.90;;;;;;4989646;28;20719;-84
2022/08/19 07:17:43;;;;;;;9.75;9.45;;;22.80;99.90;;;;;;4990047;28;20245;-83
2022/08/19 07:20:12;;;;;;;9.80;9.50;;;22.70;99.90;;;;;;4996517;28;20228;-83
2022/08/19 07:22:41;;;;;;;9.80;9.50;;;22.70;99.90;;;;;;5003106;28;20253;-83
2022/08/19 07:25:21;;;;;;;9.80;9.50;;;22.70;99.90;;;;;;5002293;28;20217;-83
2022/08/19 07:27:51;;;;;;;9.77;9.48;;;22.60;99.90;;;;;;4999468;28;20337;-83
2022/08/19 07:30:18;;;;;;;9.85;9.55;;;22.60;99.90;;;;;;4991409;28;20229;-84
2022/08/19 07:32:49;;;;;;;9.95;9.65;;;22.60;99.90;;;;;;4990627;28;20292;-83
2022/08/19 07:35:19;;;;;;;9.88;9.57;;;22.60;99.90;;;;;;4989761;28;20281;-84
2022/08/19 07:37:46;;;;;;;10.00;9.70;;;22.50;99.90;;;;;;4994075;28;20257;-83
2022/08/19 07:40:25;;;;;;;10.20;9.90;;;22.40;99.90;;;;;;4999641;28;20238;-84
2022/08/19 07:42:54;;;;;;;10.10;9.80;;;22.20;99.90;;;;;;4997719;28;20230;-84
2022/08/19 07:45:23;;;;;;;10.00;9.70;;;22.30;99.90;;;;;;4998532;28;20299;-84
2022/08/19 07:47:53;;;;;;;10.10;9.80;;;22.20;99.90;;;;;;5001161;28;20241;-84
2022/08/19 07:50:23;;;;;;;10.13;9.82;;;22.20;99.90;;;;;;4999167;28;20268;-84
2022/08/19 07:52:52;;;;;;;10.00;9.70;;;22.20;99.90;;;;;;4999809;28;20218;-84
2022/08/19 07:55:31;;;;;;;10.10;9.80;;;22.20;99.90;;;;;;4995053;28;20245;-84
2022/08/19 07:57:59;;;;;;;9.77;9.48;;;22.00;99.90;;;;;;4991649;28;20241;-84
2022/08/19 08:00:29;;;;;;;10.05;9.75;;;22.00;99.90;;;;;;4995374;28;20238;-84
2022/08/19 08:02:59;;;;;;;10.10;9.80;;;22.00;99.90;;;;;;4991120;28;20246;-84
2022/08/19 08:11:07;;;;;;;9.90;9.60;;;22.00;99.90;;;;;;4974679;28;20229;-84
2022/08/19 08:13:35;;;;;;;10.23;9.93;;;22.00;99.90;;;;;;4987397;28;20230;-84
2022/08/19 08:16:03;;;;;;;10.30;10.00;;;22.10;99.90;;;;;;4987061;28;20242;-84
2022/08/19 08:18:32;;;;;;;10.30;10.00;;;21.90;99.90;;;;;;4988065;28;20293;-84
2022/08/19 08:21:02;;;;;;;10.18;9.88;;;21.80;99.90;;;;;;4988179;28;20241;-84
2022/08/19 08:23:31;;;;;;;10.05;9.75;;;21.80;99.90;;;;;;4988882;28;20257;-84
2022/08/19 08:26:01;;;;;;;10.20;9.90;;;21.80;99.90;;;;;;4987852;28;20246;-84
2022/08/19 08:28:33;;;;;;;10.00;9.70;;;21.70;99.90;;;;;;4988518;28;20296;-84
2022/08/19 08:31:01;;;;;;;9.98;9.68;;;21.70;99.90;;;;;;4987967;28;20234;-84
2022/08/19 08:33:31;;;;;;;10.15;9.85;;;21.80;99.90;;;;;;4986984;28;20233;-84
2022/08/19 08:35:58;;;;;;;10.05;9.75;;;21.80;99.90;;;;;;4986938;28;20238;-84
2022/08/19 08:38:28;;;;;;;9.90;9.60;;;22.00;99.90;;;;;;4987168;28;20253;-84
2022/08/19 08:41:09;;;;;;;9.80;9.50;;;22.20;99.90;;;;;;4987753;28;20301;-84
2022/08/19 08:43:44;;;;;;;9.73;9.43;;;22.20;99.90;;;;;;4988576;28;20237;-84
2022/08/19 08:49:11;;;;;;;10.07;9.77;;;22.30;99.90;;;;;;4988678;28;20233;-83
2022/08/19 08:51:48;;;;;;;10.00;9.70;;;22.30;99.90;;;;;;4988321;28;20245;-84
2022/08/19 08:57:06;;;;;;;9.70;9.40;;;21.90;99.90;;;;;;4988304;28;20213;-84
2022/08/19 08:59:42;;;;;;;10.02;9.73;;;21.80;99.90;;;;;;4987336;28;20265;-84
2022/08/19 09:02:12;;;;;;;10.00;9.70;;;22.00;99.90;;;;;;4987912;28;20233;-84
2022/08/19 09:04:41;;;;;;;10.07;9.77;;;21.90;99.90;;;;;;4987714;28;20249;-84
2022/08/19 09:07:38;;;;;;;9.85;9.55;;;22.00;99.90;;;;;;4987115;28;20236;-84
2022/08/19 09:10:17;;;;;;;9.85;9.55;;;22.00;99.90;;;;;;4986714;28;20305;-84
2022/08/19 09:12:55;;;;;;;9.50;9.20;;;22.10;99.90;;;;;;4986636;28;20257;-84
2022/08/19 09:15:32;;;;;;;9.70;9.40;;;22.00;99.90;;;;;;4986078;28;20221;-84
2022/08/19 09:18:03;;;;;;;9.50;9.20;;;22.00;99.90;;;;;;4986134;28;20317;-84
2022/08/19 09:20:32;;;;;;;9.48;9.18;;;21.90;99.90;;;;;;4986858;28;20282;-84
2022/08/19 09:23:00;;;;;;;9.40;9.10;;;21.80;99.90;;;;;;4987349;28;20237;-84
2022/08/19 09:25:30;;;;;;;9.48;9.18;;;21.80;99.90;;;;;;4992983;28;20269;-84
2022/08/19 09:28:03;;;;;;;9.55;9.25;;;21.80;99.90;;;;;;4991054;28;20292;-84
2022/08/19 09:30:37;;;;;;;9.43;9.13;;;21.80;99.90;;;;;;4990679;28;20233;-84
2022/08/19 09:33:07;;;;;;;9.32;9.02;;;21.80;99.90;;;;;;4989639;28;20261;-84
2022/08/19 09:35:36;;;;;;;9.38;9.07;;;21.70;99.90;;;;;;4988463;28;20240;-84
2022/08/19 09:38:05;;;;;;;9.27;8.98;;;21.50;99.90;;;;;;4987847;28;20226;-84
2022/08/19 09:40:35;;;;;;;9.50;9.20;;;21.50;99.90;;;;;;4988463;28;20292;-84
2022/08/19 09:43:04;;;;;;;9.35;9.05;;;21.40;99.90;;;;;;4987242;28;20226;-84
2022/08/19 09:45:42;;;;;;;9.38;9.07;;;21.40;99.90;;;;;;4987337;28;20241;-84
2022/08/19 09:48:12;;;;;;;9.40;9.10;;;21.30;99.90;;;;;;4989676;28;20229;-84
2022/08/19 09:50:41;;;;;;;9.32;9.02;;;21.30;99.90;;;;;;4990139;28;20284;-84
2022/08/19 09:53:10;;;;;;;9.30;9.00;;;21.40;99.90;;;;;;4989088;28;20269;-84
2022/08/19 09:55:43;;;;;;;8.73;8.52;;;21.40;99.90;;;;;;4988115;28;20230;-84
2022/08/19 09:58:11;;;;;;;9.38;9.07;;;21.40;99.90;;;;;;4987419;28;20222;-84
2022/08/19 10:00:41;;;;;;;9.10;8.80;;;21.40;99.90;;;;;;4988816;28;20225;-84
2022/08/19 10:03:10;;;;;;;9.20;8.90;;;21.40;99.90;;;;;;4988835;28;20265;-84
2022/08/19 10:05:49;;;;;;;8.80;8.60;;;21.40;99.90;;;;;;4987403;28;20245;-84
2022/08/19 10:08:20;;;;;;;8.70;8.50;;;21.40;99.90;;;;;;4992767;28;20277;-83
2022/08/19 10:10:49;;;;;;;8.85;8.65;;;21.40;99.90;;;;;;4994767;28;20237;-84
2022/08/19 10:13:26;;;;;;;8.55;8.35;;;21.40;99.90;;;;;;4993493;28;20262;-84
2022/08/19 10:16:07;;;;;;;8.55;8.35;;;21.40;99.90;;;;;;4989436;28;20324;-84
2022/08/19 10:18:35;;;;;;;8.75;8.55;;;21.50;99.90;;;;;;4987416;28;20240;-84
2022/08/19 10:21:11;;;;;;;9.20;8.90;;;21.50;99.90;;;;;;4987505;28;20237;-84
2022/08/19 10:26:29;;;;;;;9.13;8.82;;;21.50;99.90;;;;;;4986476;28;20774;-84
2022/08/19 10:28:57;;;;;;;9.40;9.10;;;21.60;99.90;;;;;;4986445;28;20249;-84
2022/08/19 10:31:36;;;;;;;9.38;9.07;;;21.60;99.90;;;;;;4987018;28;20240;-84
2022/08/19 10:34:05;;;;;;;9.30;9.00;;;21.60;99.90;;;;;;4987613;28;20232;-84
2022/08/19 10:36:36;;;;;;;9.32;9.02;;;21.50;99.90;;;;;;4987037;28;20258;-83
2022/08/19 10:39:07;;;;;;;9.35;9.05;;;21.40;99.90;;;;;;4987773;28;20270;-84
2022/08/19 10:41:43;;;;;;;9.30;9.00;;;21.30;99.90;;;;;;4989925;28;20272;-84
2022/08/19 10:44:13;;;;;;;9.20;8.90;;;21.30;99.90;;;;;;4990740;28;20228;-83
2022/08/19 10:46:51;;;;;;;9.38;9.07;;;21.30;99.90;;;;;;4990273;28;20268;-83
2022/08/19 10:49:19;;;;;;;9.30;9.00;;;21.30;99.90;;;;;;5014803;22;20711;-79
2022/08/19 10:57:13;;;;;;;9.20;8.90;;;21.30;99.90;;;;;;5024822;28;20226;-78
2022/08/19 10:59:41;;;;;;;9.40;9.10;;;21.30;99.90;;;;;;5025199;28;20288;-78
2022/08/19 11:02:12;;;;;;;9.20;8.90;;;21.20;99.90;;;;;;5025101;28;20224;-78
2022/08/19 11:04:41;;;;;;;9.40;9.10;;;21.30;99.90;;;;;;5024266;28;20335;-78
2022/08/19 11:07:09;;;;;;;9.10;8.80;;;21.40;99.90;;;;;;5024554;28;20226;-78
2022/08/19 11:09:41;;;;;;;9.40;9.10;;;21.50;99.90;;;;;;5024586;28;20243;-78
2022/08/19 11:12:12;;;;;;;9.30;9.00;;;21.50;99.90;;;;;;5024367;28;20238;-79
2022/08/19 11:14:40;;;;;;;9.60;9.30;;;21.60;99.90;;;;;;5023963;28;20287;-79
2022/08/19 11:17:10;;;;;;;9.30;9.00;;;21.60;99.90;;;;;;5023549;28;20323;-79
2022/08/19 11:19:38;;;;;;;9.50;9.20;;;21.60;99.90;;;;;;5023821;28;20319;-78
2022/08/19 11:22:09;;;;;;;9.30;9.00;;;21.60;99.90;;;;;;5023730;28;20240;-78
2022/08/19 11:24:37;;;;;;;9.20;8.90;;;21.50;99.90;;;;;;5023100;28;20240;-79
2022/08/19 11:27:09;;;;;;;8.77;8.57;;;21.50;99.90;;;;;;5023434;28;20230;-78
2022/08/19 11:29:38;;;;;;;8.77;8.57;;;21.50;99.90;;;;;;5024075;28;20239;-79
2022/08/19 11:32:10;;;;;;;8.48;8.27;;;21.50;99.90;;;;;;5022195;28;20238;-77
2022/08/19 11:34:38;;;;;;;8.60;8.40;;;21.50;99.90;;;;;;5020741;28;20236;-78
2022/08/19 11:37:08;;;;;;;8.68;8.48;;;21.50;99.90;;;;;;5020410;28;20256;-77
2022/08/19 11:39:37;;;;;;;8.85;8.65;;;21.60;99.90;;;;;;5020488;28;20236;-78
2022/08/19 11:42:54;;;;;;;9.23;8.93;;;21.60;99.90;;;;;;5020802;28;20243;-78
2022/08/19 11:44:56;;;;;;;9.05;8.77;;;21.70;99.90;;;;;;5019217;28;20246;-78
2022/08/19 11:47:30;;;;;;;9.27;8.98;;;21.80;99.90;;;;;;5020390;28;20231;-77
2022/08/19 11:49:59;;;;;;;8.80;8.60;;;21.70;99.90;;;;;;5019700;28;20235;-77
2022/08/19 11:52:29;;;;;;;8.90;8.70;;;21.70;99.90;;;;;;5020021;28;21070;-77
2022/08/19 11:54:58;;;;;;;9.13;8.82;;;21.70;99.90;;;;;;5019966;28;20239;-78
2022/08/19 11:57:25;;;;;;;9.10;8.80;;;21.70;99.90;;;;;;5020354;28;20259;-77
2022/08/19 11:59:56;;;;;;;8.63;8.43;;;21.80;99.90;;;;;;5019573;28;20243;-77
2022/08/19 12:02:26;;;;;;;9.40;9.10;;;21.80;99.90;;;;;;5020861;28;20308;-77
2022/08/19 12:04:54;;;;;;;9.27;8.98;;;21.80;99.90;;;;;;5019901;28;20236;-78
2022/08/19 12:07:22;;;;;;;9.20;8.90;;;21.80;99.90;;;;;;5020896;28;20236;-78
2022/08/19 12:09:50;;;;;;;9.25;8.95;;;21.80;99.90;;;;;;5030879;28;20275;-78
2022/08/19 12:12:17;;;;;;;9.40;9.10;;;21.70;99.90;;;;;;5037343;28;20247;-78
2022/08/19 12:14:46;;;;;;;9.20;8.90;;;21.70;99.90;;;;;;5028878;28;20308;-79
2022/08/19 12:17:13;;;;;;;9.10;8.80;;;21.60;99.90;;;;;;5022135;28;20228;-78
2022/08/19 12:19:42;;;;;;;8.93;8.68;;;21.50;99.90;;;;;;5021329;28;20335;-78
2022/08/19 12:22:09;;;;;;;8.80;8.60;;;21.60;99.90;;;;;;5020931;28;20235;-79
2022/08/19 12:24:37;;;;;;;8.45;8.25;;;21.60;99.90;;;;;;5020925;28;20318;-79
2022/08/19 12:27:05;;;;;;;8.60;8.40;;;21.50;99.90;;;;;;5021096;28;20228;-78
2022/08/19 12:29:33;;;;;;;8.43;8.23;;;21.60;99.90;;;;;;5020626;28;20323;-77
2022/08/19 12:32:02;;;;;;;8.50;8.30;;;21.60;99.90;;;;;;5020574;28;20238;-78
2022/08/19 12:34:32;;;;;;;8.88;8.68;;;21.50;99.90;;;;;;5019880;28;20236;-78
2022/08/19 12:37:12;;;;;;;8.70;8.50;;;21.50;99.90;;;;;;5020342;28;20238;-77
2022/08/19 12:39:42;;;;;;;8.88;8.68;;;21.40;99.90;;;;;;5037839;28;20220;-77
2022/08/19 12:42:11;;;;;;;9.18;8.88;;;21.30;99.90;;;;;;5033096;28;20291;-77
2022/08/19 12:44:40;;;;;;;9.20;8.90;;;21.20;99.90;;;;;;5021364;28;20236;-78
2022/08/19 12:47:09;;;;;;;9.40;9.10;;;21.10;99.90;;;;;;5020374;28;20330;-78
2022/08/19 12:49:39;;;;;;;9.50;9.20;;;21.00;99.90;;;;;;5019710;28;20247;-77
2022/08/19 12:52:10;;;;;;;9.52;9.23;;;21.10;99.90;;;;;;5020471;28;20243;-78
2022/08/19 12:54:38;;;;;;;9.18;8.88;;;21.00;99.90;;;;;;5019411;28;20384;-77
2022/08/19 12:57:10;;;;;;;9.15;8.85;;;20.90;99.90;;;;;;5019452;28;20232;-78
2022/08/19 12:59:39;;;;;;;9.32;9.02;;;20.70;99.90;;;;;;5018990;28;20228;-76
2022/08/19 13:02:07;;;;;;;9.27;8.98;;;20.70;99.90;;;;;;5019254;28;20232;-77
2022/08/19 13:04:40;;;;;;;9.50;9.20;;;20.70;99.90;;;;;;5017277;28;20232;-77
2022/08/19 13:07:09;;;;;;;9.60;9.30;;;20.60;99.90;;;;;;5018385;28;20247;-77
2022/08/19 13:09:37;;;;;;;9.45;9.15;;;20.50;99.90;;;;;;5018337;28;20228;-77
2022/08/19 13:12:07;;;;;;;9.05;8.77;;;20.40;99.90;;;;;;5018436;28;20243;-77
2022/08/19 13:14:35;;;;;;;9.13;8.82;;;20.40;99.90;;;;;;5018226;28;20223;-77
2022/08/19 13:17:03;;;;;;;9.10;8.80;;;20.50;99.90;;;;;;5018466;28;20334;-77
2022/08/19 13:19:31;;;;;;;9.20;8.90;;;20.60;99.90;;;;;;5018159;28;20246;-78
2022/08/19 13:21:58;;;;;;;9.20;8.90;;;20.70;99.90;;;;;;5018801;28;20278;-77
2022/08/19 13:24:27;;;;;;;9.52;9.23;;;20.60;99.90;;;;;;5018506;28;20240;-77
2022/08/19 13:26:55;;;;;;;9.50;9.20;;;20.60;99.90;;;;;;5017695;28;20757;-77
2022/08/19 13:34:52;;;;;;;9.30;9.00;;;20.60;99.90;;;;;;5020011;28;20228;-78
2022/08/19 13:37:40;;;;;;;9.48;9.18;;;20.60;99.90;;;;;;5019914;28;20239;-77
2022/08/19 13:40:15;;;;;;;9.77;9.48;;;20.60;99.90;;;;;;5019442;28;20228;-77
2022/08/19 13:42:43;;;;;;;9.50;9.20;;;20.60;99.90;;;;;;5019948;28;20231;-77
2022/08/19 13:45:11;;;;;;;9.48;9.18;;;20.60;99.90;;;;;;5019404;28;20232;-78